Time;durP1;ratioP1;P1;durP2;ratioP2;P2;SDS_P1;SDS_P2;PMS_P1;PMS_P2;Temp;Humidity;BMP_temperature;BMP_pressure;BME280_temperature;BME280_humidity;BME280_pressure;Samples;Min_cycle;Max_cycle;Signal;HPM_P1;HPM_P2
2022/03/06 00:02:16;;;;;;;19.30;10.05;;;;;;;0.26;61.33;101560.88;1609853;88;27645;-78
2022/03/06 00:04:42;;;;;;;21.00;9.78;;;;;;;0.27;61.17;101568.71;1612414;88;26525;-76
2022/03/06 00:07:08;;;;;;;14.73;9.25;;;;;;;0.28;60.81;101563.80;1607634;88;25875;-76
2022/03/06 00:09:35;;;;;;;17.07;9.70;;;;;;;0.22;60.57;101564.66;1610758;87;26564;-76
2022/03/06 00:12:01;;;;;;;17.92;10.03;;;;;;;0.20;60.93;101570.03;1607149;86;25865;-77
2022/03/06 00:14:29;;;;;;;19.07;9.33;;;;;;;0.20;61.00;101568.72;1607605;88;27543;-78
2022/03/06 00:16:55;;;;;;;15.15;8.55;;;;;;;0.21;61.02;101565.16;1607395;88;25794;-78
2022/03/06 00:19:22;;;;;;;19.17;9.95;;;;;;;0.22;61.24;101570.78;1610916;87;25811;-77
2022/03/06 00:21:48;;;;;;;16.85;9.80;;;;;;;0.22;61.69;101564.66;1607342;88;25814;-76
2022/03/06 00:24:14;;;;;;;16.27;10.72;;;;;;;0.22;61.77;101565.98;1580947;88;25964;-76
2022/03/06 00:26:41;;;;;;;19.73;10.53;;;;;;;0.24;61.83;101566.27;1612227;87;27461;-77
2022/03/06 00:29:07;;;;;;;19.05;10.03;;;;;;;0.27;61.96;101570.03;1607367;88;25750;-77
2022/03/06 00:31:33;;;;;;;22.07;9.88;;;;;;;0.31;61.80;101569.35;1600653;88;25958;-77
2022/03/06 00:34:00;;;;;;;14.95;9.38;;;;;;;0.34;61.74;101562.58;1610995;88;25976;-76
2022/03/06 00:36:26;;;;;;;17.17;9.20;;;;;;;0.38;61.60;101562.29;1614980;87;25975;-77
2022/03/06 00:38:52;;;;;;;24.50;11.53;;;;;;;0.39;61.62;101564.43;1573977;89;27636;-77
2022/03/06 00:41:19;;;;;;;16.80;9.43;;;;;;;0.37;61.57;101561.05;1604628;88;26443;-77
2022/03/06 00:43:45;;;;;;;20.27;10.05;;;;;;;0.37;61.55;101561.05;1608094;86;26233;-79
2022/03/06 00:46:11;;;;;;;15.60;8.98;;;;;;;0.35;61.74;101558.98;1603757;88;26557;-77
2022/03/06 00:48:38;;;;;;;13.65;8.55;;;;;;;0.34;61.63;101558.63;1612765;87;25934;-77
2022/03/06 00:51:04;;;;;;;16.02;9.58;;;;;;;0.32;61.73;101556.56;1587287;88;27473;-76
2022/03/06 00:53:31;;;;;;;16.10;9.68;;;;;;;0.35;61.50;101553.25;1613541;88;26512;-76
2022/03/06 00:55:57;;;;;;;17.92;9.38;;;;;;;0.37;60.85;101553.14;1602794;88;25878;-77
2022/03/06 00:58:24;;;;;;;16.48;8.73;;;;;;;0.30;61.12;101559.27;1609058;87;26150;-77
2022/03/06 01:00:50;;;;;;;18.92;9.48;;;;;;;0.26;61.32;101555.15;1604169;87;25921;-76
2022/03/06 01:03:20;;;;;;;16.85;8.63;;;;;;;0.26;61.36;101556.93;1608722;87;27478;-76
2022/03/06 01:05:47;;;;;;;15.88;9.33;;;;;;;0.23;61.57;101552.73;1578864;89;25600;-77
2022/03/06 01:08:13;;;;;;;14.18;8.53;;;;;;;0.12;61.92;101551.70;1610016;88;26016;-76
2022/03/06 01:10:44;;;;;;;15.78;9.15;;;;;;;0.13;62.10;101548.97;1580073;89;25794;-77
2022/03/06 01:13:11;;;;;;;16.00;9.28;;;;;;;0.17;62.24;101545.19;1609897;88;25858;-77
2022/03/06 01:15:38;;;;;;;15.45;9.60;;;;;;;0.20;62.18;101550.27;1580293;89;28703;-78
2022/03/06 01:18:06;;;;;;;14.18;8.90;;;;;;;0.22;62.23;101545.75;1604845;88;26556;-77
2022/03/06 01:20:34;;;;;;;16.87;9.85;;;;;;;0.25;62.15;101547.35;1610365;87;25744;-77
2022/03/06 01:23:00;;;;;;;19.92;11.18;;;;;;;0.24;62.07;101548.28;1579726;89;26596;-75
2022/03/06 01:25:27;;;;;;;20.72;11.45;;;;;;;0.22;62.09;101541.80;1601889;88;25977;-78
2022/03/06 01:27:53;;;;;;;17.00;10.60;;;;;;;0.24;62.07;101541.23;1607255;88;27448;-77
2022/03/06 01:30:21;;;;;;;22.05;10.65;;;;;;;0.22;62.08;101539.16;1609082;87;25575;-77
2022/03/06 01:32:49;;;;;;;23.70;11.55;;;;;;;0.20;61.99;101541.52;1610316;88;25336;-76
2022/03/06 01:35:16;;;;;;;17.20;10.55;;;;;;;0.20;61.99;101538.42;1606462;88;26005;-77
2022/03/06 01:37:42;;;;;;;20.88;10.78;;;;;;;0.19;61.98;101534.11;1606621;87;26004;-78
2022/03/06 01:40:11;;;;;;;18.95;11.60;;;;;;;0.18;62.41;101529.77;1602693;88;27474;-78
2022/03/06 01:42:43;;;;;;;19.60;11.38;;;;;;;0.21;62.38;101525.64;1606304;88;25914;-76
2022/03/06 01:45:11;;;;;;;19.35;11.10;;;;;;;0.23;62.28;101532.11;1610327;88;26593;-78
2022/03/06 01:47:44;;;;;;;19.48;11.30;;;;;;;0.24;62.48;101531.16;1600726;88;25874;-79
2022/03/06 01:50:24;;;;;;;17.85;11.00;;;;;;;0.26;62.31;101526.62;1607167;86;26151;-76
2022/03/06 01:52:53;;;;;;;15.90;10.38;;;;;;;0.28;62.22;101528.73;1609563;88;46672;-76
2022/03/06 01:55:23;;;;;;;20.12;10.93;;;;;;;0.28;61.95;101520.82;1609945;88;26038;-76
2022/03/06 01:57:49;;;;;;;17.40;10.77;;;;;;;0.27;61.89;101516.48;1602891;88;25755;-76
2022/03/06 02:00:21;;;;;;;18.57;9.98;;;;;;;0.27;61.89;101516.48;1602939;88;25792;-76
2022/03/06 02:02:47;;;;;;;18.25;10.00;;;;;;;0.25;61.35;101521.86;1613432;88;25781;-76
2022/03/06 02:05:14;;;;;;;20.48;11.57;;;;;;;0.22;61.26;101523.36;1607440;88;27637;-76
2022/03/06 02:07:41;;;;;;;19.02;11.03;;;;;;;0.23;61.18;101511.03;1610859;87;25764;-77
2022/03/06 02:10:09;;;;;;;21.50;12.28;;;;;;;0.24;61.51;101514.03;1607431;88;25926;-76
2022/03/06 02:12:36;;;;;;;20.25;12.65;;;;;;;0.25;61.40;101514.42;1602801;88;26564;-77
2022/03/06 02:15:07;;;;;;;28.95;14.40;;;;;;;0.26;61.54;101510.83;1605220;88;25832;-77
2022/03/06 02:17:33;;;;;;;;;;;;;;;0.30;61.65;101511.02;1605389;88;27472;-76
2022/03/06 02:20:08;;;;;;;30.70;15.63;;;;;;;0.32;61.66;101509.95;1615601;88;26088;-76
2022/03/06 02:22:37;;;;;;;25.60;14.80;;;;;;;0.31;61.63;101509.59;1617845;87;25541;-77
2022/03/06 02:25:18;;;;;;;25.20;13.85;;;;;;;0.35;61.35;101515.04;1611611;88;26247;-77
2022/03/06 02:27:47;;;;;;;25.40;14.25;;;;;;;0.36;61.33;101511.94;1616558;88;26211;-76
2022/03/06 02:30:17;;;;;;;23.30;13.32;;;;;;;0.32;60.98;101496.78;1603640;88;28317;-76
2022/03/06 02:32:46;;;;;;;19.00;12.88;;;;;;;0.32;60.84;101498.59;1604094;87;25857;-78
2022/03/06 02:35:13;;;;;;;20.08;11.25;;;;;;;0.33;60.81;101505.08;1611160;87;25837;-76
2022/03/06 02:37:40;;;;;;;22.00;12.65;;;;;;;0.35;60.78;101502.33;1605375;87;25889;-76
2022/03/06 02:40:10;;;;;;;20.68;12.13;;;;;;;0.36;60.53;101498.77;1612964;88;25826;-76
2022/03/06 02:42:41;;;;;;;24.77;13.72;;;;;;;0.37;60.34;101501.29;1613102;87;27466;-79
2022/03/06 02:45:10;;;;;;;;;;;;;;;0.39;59.86;101499.86;1612158;88;25851;-77
2022/03/06 02:47:37;;;;;;;23.40;12.93;;;;;;;0.39;59.31;101497.23;1605001;88;25809;-77
2022/03/06 02:50:08;;;;;;;23.67;13.90;;;;;;;0.36;59.74;101495.66;1609297;86;26345;-78
2022/03/06 02:52:34;;;;;;;;;;;;;;;0.35;59.80;101498.37;1591857;88;25918;-76
2022/03/06 02:55:00;;;;;;;23.05;12.58;;;;;;;0.34;59.93;101492.25;1604745;88;27472;-76
2022/03/06 02:57:27;;;;;;;27.65;14.05;;;;;;;0.33;60.21;101488.41;1611275;88;25893;-77
2022/03/06 02:59:53;;;;;;;21.95;12.68;;;;;;;0.32;60.24;101488.88;1614077;88;25854;-76
2022/03/06 03:02:19;;;;;;;25.75;13.43;;;;;;;0.29;60.16;101493.05;1608931;85;25802;-77
2022/03/06 03:04:45;;;;;;;24.43;13.20;;;;;;;0.28;60.44;101491.84;1609620;88;25838;-77
2022/03/06 03:07:11;;;;;;;22.35;11.80;;;;;;;0.26;60.59;101490.59;1610824;87;28377;-76
2022/03/06 03:09:38;;;;;;;22.35;12.45;;;;;;;0.27;60.70;101486.18;1610613;87;26555;-76
2022/03/06 03:12:05;;;;;;;16.75;9.38;;;;;;;0.26;60.80;101493.70;1610630;87;25829;-78
2022/03/06 03:14:33;;;;;;;17.32;9.60;;;;;;;0.17;60.61;101493.81;1603788;87;25747;-76
2022/03/06 03:17:00;;;;;;;15.50;9.13;;;;;;;0.13;61.07;101495.45;1608940;87;25794;-77
2022/03/06 03:19:27;;;;;;;17.52;9.75;;;;;;;0.15;61.10;101490.94;1578406;89;27458;-76
2022/03/06 03:21:54;;;;;;;15.53;8.10;;;;;;;0.17;61.37;101493.81;1610695;88;25901;-76
2022/03/06 03:24:20;;;;;;;16.30;8.23;;;;;;;0.19;61.40;101490.64;1609221;88;25712;-77
2022/03/06 03:26:47;;;;;;;23.57;12.05;;;;;;;0.18;61.57;101492.89;1578459;89;25861;-76
2022/03/06 03:29:13;;;;;;;14.03;9.05;;;;;;;0.15;61.56;101489.62;1606242;88;25872;-76
2022/03/06 03:31:40;;;;;;;15.45;9.50;;;;;;;0.16;59.14;101494.78;1608126;88;27486;-77
2022/03/06 03:34:06;;;;;;;18.90;9.28;;;;;;;0.21;59.22;101492.70;1608107;87;25957;-76
2022/03/06 03:36:32;;;;;;;15.88;9.45;;;;;;;0.22;59.58;101493.52;1582377;89;25749;-76
2022/03/06 03:38:58;;;;;;;12.68;7.90;;;;;;;0.24;59.76;101494.27;1604609;88;26571;-78
2022/03/06 03:41:25;;;;;;;17.73;8.10;;;;;;;0.26;59.98;101495.87;1613015;88;25767;-76
2022/03/06 03:43:52;;;;;;;17.23;9.28;;;;;;;0.28;60.22;101497.92;1607003;88;27550;-75
2022/03/06 03:46:21;;;;;;;14.80;8.50;;;;;;;0.30;60.32;101497.84;1586944;89;25885;-77
2022/03/06 03:48:48;;;;;;;18.95;9.58;;;;;;;0.32;60.47;101499.41;1606365;87;25847;-77
2022/03/06 03:51:15;;;;;;;14.87;9.18;;;;;;;0.33;60.53;101497.17;1611395;86;26590;-76
2022/03/06 03:53:41;;;;;;;13.62;8.88;;;;;;;0.34;60.77;101500.66;1607240;87;25826;-77
2022/03/06 03:56:07;;;;;;;16.40;8.35;;;;;;;0.34;60.75;101501.97;1611399;87;27514;-75
2022/03/06 03:58:34;;;;;;;17.50;9.03;;;;;;;0.29;60.53;101499.63;1610065;87;26513;-77
2022/03/06 04:01:01;;;;;;;13.75;7.95;;;;;;;0.28;61.00;101499.25;1580634;89;25818;-76
2022/03/06 04:03:27;;;;;;;16.60;10.28;;;;;;;0.29;61.26;101499.63;1599349;88;25854;-76
2022/03/06 04:05:54;;;;;;;19.60;10.28;;;;;;;0.29;61.03;101501.41;1603614;88;25923;-76
2022/03/06 04:08:20;;;;;;;16.93;9.95;;;;;;;0.30;61.08;101496.03;1602941;88;27477;-76
2022/03/06 04:10:46;;;;;;;21.30;10.98;;;;;;;0.32;59.98;101499.41;1606466;88;25943;-76
2022/03/06 04:13:13;;;;;;;19.23;10.18;;;;;;;0.34;60.56;101497.52;1610471;88;25830;-77
2022/03/06 04:15:39;;;;;;;18.17;10.00;;;;;;;0.37;61.01;101499.97;1610851;87;25870;-77
2022/03/06 04:18:05;;;;;;;21.23;10.30;;;;;;;0.38;61.37;101502.14;1611971;88;25949;-75
2022/03/06 04:20:34;;;;;;;14.30;8.68;;;;;;;0.36;61.32;101506.20;1607023;88;27468;-76
2022/03/06 04:23:00;;;;;;;18.20;9.95;;;;;;;0.35;61.25;101499.70;1610062;88;26530;-78
2022/03/06 04:25:26;;;;;;;18.45;9.85;;;;;;;0.34;61.03;101507.24;1603149;88;26467;-77
2022/03/06 04:27:53;;;;;;;20.15;11.53;;;;;;;0.36;61.05;101509.30;1610045;87;25886;-76
2022/03/06 04:30:22;;;;;;;16.60;9.13;;;;;;;0.36;60.98;101508.84;1617421;88;26540;-76
2022/03/06 04:32:48;;;;;;;15.20;7.60;;;;;;;0.25;58.95;101499.92;1599556;88;28312;-75
2022/03/06 04:35:16;;;;;;;16.10;9.25;;;;;;;0.22;59.98;101501.43;1607343;87;25879;-77
2022/03/06 04:37:44;;;;;;;16.52;8.45;;;;;;;0.15;60.54;101506.24;1608802;88;25940;-76
2022/03/06 04:40:12;;;;;;;13.72;8.10;;;;;;;0.14;60.72;101508.52;1573797;89;25904;-78
2022/03/06 04:42:38;;;;;;;12.37;7.78;;;;;;;0.17;60.97;101506.17;1602907;87;26574;-77
2022/03/06 04:45:05;;;;;;;15.90;9.03;;;;;;;0.16;60.83;101515.00;1612775;88;27467;-76
2022/03/06 04:47:32;;;;;;;13.38;8.00;;;;;;;0.09;61.14;101505.33;1610638;88;26210;-77
2022/03/06 04:49:58;;;;;;;18.95;9.00;;;;;;;0.09;61.30;101508.42;1585849;88;26609;-77
2022/03/06 04:52:24;;;;;;;14.38;8.28;;;;;;;0.04;61.58;101503.94;1604904;88;25819;-78
2022/03/06 04:54:51;;;;;;;14.70;8.65;;;;;;;0.03;62.29;101507.03;1600419;87;25924;-76
2022/03/06 04:57:17;;;;;;;15.45;8.25;;;;;;;-0.01;61.75;101507.72;1607377;87;27614;-76
2022/03/06 04:59:43;;;;;;;15.93;9.13;;;;;;;0.02;62.03;101506.69;1610957;88;26463;-78
2022/03/06 05:02:10;;;;;;;14.45;8.30;;;;;;;0.04;62.24;101514.48;1607561;87;25801;-77
2022/03/06 05:04:36;;;;;;;13.45;8.55;;;;;;;0.03;62.31;101510.14;1611353;88;26548;-76
2022/03/06 05:07:02;;;;;;;15.35;9.55;;;;;;;0.03;62.52;101512.77;1611315;87;25894;-76
2022/03/06 05:09:29;;;;;;;14.47;9.30;;;;;;;0.02;62.60;101505.83;1611025;87;27482;-77
2022/03/06 05:11:55;;;;;;;14.65;8.25;;;;;;;0.03;62.71;101500.45;1609858;85;25897;-76
2022/03/06 05:14:21;;;;;;;17.25;10.05;;;;;;;0.04;62.81;101502.62;1580265;89;25739;-76
2022/03/06 05:16:47;;;;;;;15.30;8.90;;;;;;;0.05;62.85;101497.25;1609347;88;26541;-77
2022/03/06 05:19:13;;;;;;;17.85;9.93;;;;;;;0.05;63.02;101499.88;1607581;87;25800;-77
2022/03/06 05:21:40;;;;;;;14.28;9.43;;;;;;;0.07;63.17;101498.45;1609307;87;27456;-77
2022/03/06 05:24:06;;;;;;;16.05;8.85;;;;;;;0.11;63.06;101499.98;1608978;86;25873;-77
2022/03/06 05:26:32;;;;;;;14.63;8.38;;;;;;;0.10;62.60;101494.33;1611338;88;26560;-77
2022/03/06 05:28:58;;;;;;;14.40;8.38;;;;;;;0.14;61.63;101499.30;1611061;87;25825;-78
2022/03/06 05:31:24;;;;;;;16.82;9.03;;;;;;;0.11;62.05;101495.53;1609163;87;25760;-77
2022/03/06 05:33:51;;;;;;;13.48;8.70;;;;;;;0.12;62.26;101494.61;1583677;88;27467;-77
2022/03/06 05:36:18;;;;;;;11.95;8.25;;;;;;;0.11;61.40;101492.08;1607979;88;25817;-77
2022/03/06 05:38:46;;;;;;;14.38;8.40;;;;;;;0.12;61.58;101493.75;1610379;88;26527;-77
2022/03/06 05:41:12;;;;;;;10.08;7.45;;;;;;;0.12;61.31;101488.48;1615613;88;26537;-76
2022/03/06 05:43:38;;;;;;;10.20;6.53;;;;;;;0.09;58.02;101496.11;1607293;87;25345;-77
2022/03/06 05:46:04;;;;;;;11.38;7.15;;;;;;;0.10;57.24;101495.17;1603654;88;27461;-76
2022/03/06 05:48:30;;;;;;;9.98;7.20;;;;;;;0.16;57.89;101492.14;1613208;88;25897;-76
2022/03/06 05:50:58;;;;;;;19.45;9.53;;;;;;;0.24;57.87;101495.59;1608542;87;26519;-76
2022/03/06 05:53:24;;;;;;;14.58;9.75;;;;;;;0.28;58.74;101494.47;1612377;88;26755;-77
2022/03/06 05:55:51;;;;;;;17.62;9.48;;;;;;;0.31;59.16;101501.70;1613726;88;25868;-76
2022/03/06 05:58:17;;;;;;;17.57;8.45;;;;;;;0.34;59.20;101494.06;1615455;87;27635;-77
2022/03/06 06:00:43;;;;;;;11.97;6.90;;;;;;;0.34;59.96;101500.66;1609184;88;25939;-77
2022/03/06 06:03:10;;;;;;;11.75;7.42;;;;;;;0.33;60.82;101493.22;1610019;87;26448;-77
2022/03/06 06:05:36;;;;;;;12.37;7.53;;;;;;;0.35;61.45;101491.79;1606150;88;25773;-76
2022/03/06 06:08:04;;;;;;;12.50;6.95;;;;;;;0.36;61.83;101495.66;1605831;88;26015;-76
2022/03/06 06:10:30;;;;;;;23.20;12.33;;;;;;;0.39;61.90;101493.27;1610785;88;28392;-76
2022/03/06 06:12:56;;;;;;;15.63;8.58;;;;;;;0.41;61.37;101494.02;1611547;87;25902;-77
2022/03/06 06:15:22;;;;;;;11.78;7.30;;;;;;;0.43;61.72;101482.44;1611089;87;25868;-77
2022/03/06 06:17:49;;;;;;;12.58;7.72;;;;;;;0.45;62.25;101485.81;1588112;88;25857;-78
2022/03/06 06:20:15;;;;;;;11.80;7.25;;;;;;;0.45;62.40;101483.67;1609545;88;26576;-77
2022/03/06 06:22:41;;;;;;;11.80;6.65;;;;;;;0.47;62.79;101480.47;1616269;88;27456;-77
2022/03/06 06:25:08;;;;;;;15.95;8.73;;;;;;;0.49;62.48;101483.84;1588819;89;25887;-78
2022/03/06 06:27:35;;;;;;;14.23;8.33;;;;;;;0.49;61.25;101474.13;1607085;87;26041;-77
2022/03/06 06:30:01;;;;;;;14.07;8.13;;;;;;;0.48;60.99;101479.04;1605028;88;26692;-76
2022/03/06 06:32:27;;;;;;;17.65;8.95;;;;;;;0.50;60.83;101478.46;1611741;88;25781;-77
2022/03/06 06:34:53;;;;;;;18.15;9.55;;;;;;;0.55;60.46;101481.66;1585419;89;28244;-76
2022/03/06 06:37:19;;;;;;;16.15;9.18;;;;;;;0.61;60.43;101480.39;1611760;88;25857;-77
2022/03/06 06:39:46;;;;;;;16.87;9.93;;;;;;;0.66;60.35;101476.48;1607642;87;25806;-76
2022/03/06 06:42:12;;;;;;;25.17;11.68;;;;;;;0.68;60.43;101477.72;1603513;88;25831;-76
2022/03/06 06:44:38;;;;;;;18.37;11.35;;;;;;;0.69;59.88;101465.75;1610791;87;25805;-77
2022/03/06 06:47:05;;;;;;;14.60;8.48;;;;;;;0.66;58.57;101471.70;1608793;87;28364;-77
2022/03/06 06:49:31;;;;;;;12.20;7.20;;;;;;;0.64;58.67;101478.88;1589084;89;25788;-75
2022/03/06 06:51:57;;;;;;;10.15;6.90;;;;;;;0.65;58.34;101476.59;1611967;86;25872;-78
2022/03/06 06:54:24;;;;;;;23.45;13.80;;;;;;;0.66;57.25;101482.25;1610965;85;26602;-77
2022/03/06 06:56:50;;;;;;;13.03;8.68;;;;;;;0.68;57.41;101473.77;1607504;88;25854;-78
2022/03/06 06:59:16;;;;;;;13.03;7.47;;;;;;;0.74;57.14;101474.67;1609857;88;28340;-77
2022/03/06 07:01:43;;;;;;;10.35;6.33;;;;;;;0.78;57.24;101477.47;1606411;88;25751;-77
2022/03/06 07:04:09;;;;;;;12.53;7.42;;;;;;;0.79;57.18;101477.35;1609666;88;25854;-76
2022/03/06 07:06:35;;;;;;;19.62;12.23;;;;;;;0.85;57.62;101476.12;1614214;87;26498;-76
2022/03/06 07:09:02;;;;;;;21.68;12.82;;;;;;;0.92;57.36;101477.37;1608001;87;25874;-75
2022/03/06 07:11:28;;;;;;;24.47;12.75;;;;;;;0.99;57.16;101477.80;1607820;87;28434;-76
2022/03/06 07:13:54;;;;;;;15.30;8.40;;;;;;;1.05;57.04;101476.09;1606383;88;25898;-79
2022/03/06 07:16:21;;;;;;;11.45;6.40;;;;;;;1.09;56.05;101478.89;1604651;88;25811;-76
2022/03/06 07:18:47;;;;;;;11.63;7.45;;;;;;;1.08;56.13;101478.03;1607616;87;25803;-78
2022/03/06 07:21:13;;;;;;;11.53;7.37;;;;;;;1.09;56.24;101477.06;1607580;85;25773;-78
2022/03/06 07:23:42;;;;;;;35.92;19.62;;;;;;;1.12;56.68;101471.59;1603657;88;27650;-77
2022/03/06 07:26:08;;;;;;;86.25;46.35;;;;;;;1.16;56.59;101474.39;1607655;87;25622;-76
2022/03/06 07:28:34;;;;;;;35.95;19.95;;;;;;;1.21;56.28;101470.97;1610456;88;26640;-77
2022/03/06 07:31:01;;;;;;;16.17;10.45;;;;;;;1.26;56.25;101470.16;1612694;87;25939;-76
2022/03/06 07:33:27;;;;;;;18.60;12.28;;;;;;;1.32;55.54;101476.35;1614621;88;25821;-78
2022/03/06 07:35:53;;;;;;;22.55;11.78;;;;;;;1.34;55.56;101470.49;1607446;85;28377;-78
2022/03/06 07:38:20;;;;;;;18.85;9.55;;;;;;;1.38;55.13;101471.11;1608613;88;25751;-77
2022/03/06 07:40:46;;;;;;;19.87;12.18;;;;;;;1.42;54.60;101477.39;1614021;88;25896;-82
2022/03/06 07:43:12;;;;;;;20.10;10.43;;;;;;;1.48;54.99;101474.31;1607751;88;25841;-77
2022/03/06 07:45:38;;;;;;;19.87;10.58;;;;;;;1.52;54.99;101477.11;1613588;87;26539;-77
2022/03/06 07:48:05;;;;;;;25.57;12.30;;;;;;;1.58;54.41;101475.34;1608916;87;27486;-79
2022/03/06 07:50:31;;;;;;;27.70;13.40;;;;;;;1.63;54.05;101477.67;1608150;86;25378;-77
2022/03/06 07:52:58;;;;;;;22.98;11.65;;;;;;;1.66;53.57;101479.26;1606017;88;25831;-78
2022/03/06 07:55:24;;;;;;;17.98;10.50;;;;;;;1.68;53.14;101479.98;1611557;88;26511;-79
2022/03/06 07:57:50;;;;;;;21.20;11.85;;;;;;;1.69;53.04;101481.69;1607703;88;25942;-80
2022/03/06 08:00:17;;;;;;;12.47;8.15;;;;;;;1.73;53.35;101473.92;1608742;87;28361;-80
2022/03/06 08:02:43;;;;;;;16.23;10.50;;;;;;;1.76;53.24;101475.00;1592737;88;27024;-81
2022/03/06 08:05:10;;;;;;;19.95;11.85;;;;;;;1.79;53.40;101479.61;1613024;86;25328;-80
2022/03/06 08:07:36;;;;;;;17.12;9.70;;;;;;;1.82;53.40;101481.19;1620062;86;25769;-80
2022/03/06 08:10:06;;;;;;;15.65;8.23;;;;;;;1.83;52.99;101482.86;1612534;87;26033;-81
2022/03/06 08:12:32;;;;;;;14.53;9.53;;;;;;;1.89;53.33;101477.14;1609972;88;28531;-80
2022/03/06 08:14:58;;;;;;;10.60;8.55;;;;;;;1.92;53.61;101484.86;1609860;88;26813;-83
2022/03/06 08:17:25;;;;;;;13.70;9.48;;;;;;;1.98;53.61;101484.41;1611887;88;25324;-83
2022/03/06 08:19:53;;;;;;;15.03;9.78;;;;;;;2.02;53.44;101485.41;1616009;86;25858;-82
2022/03/06 08:22:21;;;;;;;14.80;9.60;;;;;;;2.06;53.12;101486.87;1614205;88;26521;-83
2022/03/06 08:24:47;;;;;;;11.70;8.63;;;;;;;2.10;52.71;101488.80;1612285;87;27476;-81
2022/03/06 08:27:13;;;;;;;15.70;9.13;;;;;;;2.14;52.67;101494.23;1608821;87;25333;-81
2022/03/06 08:29:39;;;;;;;10.13;7.90;;;;;;;2.14;52.60;101492.91;1609663;88;25872;-81
2022/03/06 08:32:07;;;;;;;11.85;7.17;;;;;;;2.16;53.21;101487.87;1588290;89;25786;-81
2022/03/06 08:34:33;;;;;;;12.55;7.97;;;;;;;2.21;53.18;101490.19;1609554;88;25828;-80
2022/03/06 08:37:00;;;;;;;11.15;7.10;;;;;;;2.24;52.80;101483.38;1612765;87;27451;-80
2022/03/06 08:39:26;;;;;;;12.40;7.53;;;;;;;2.25;52.43;101485.89;1604894;87;25869;-80
2022/03/06 08:41:52;;;;;;;9.20;7.10;;;;;;;2.32;52.36;101487.61;1582400;89;25900;-81
2022/03/06 08:44:18;;;;;;;11.00;6.65;;;;;;;2.31;52.10;101486.77;1610830;88;26130;-82
2022/03/06 08:46:47;;;;;;;10.68;7.20;;;;;;;2.33;51.93;101487.49;1611698;88;25843;-81
2022/03/06 08:49:13;;;;;;;12.58;8.13;;;;;;;2.37;51.75;101492.09;1604253;88;27473;-81
2022/03/06 08:51:39;;;;;;;10.00;7.75;;;;;;;2.41;52.05;101489.59;1606589;88;25884;-81
2022/03/06 08:54:06;;;;;;;10.93;7.00;;;;;;;2.44;52.23;101489.34;1611855;88;26371;-81
2022/03/06 08:56:32;;;;;;;8.18;6.30;;;;;;;2.49;51.41;101489.01;1615947;86;26436;-80
2022/03/06 08:58:58;;;;;;;8.83;6.37;;;;;;;2.53;51.49;101492.64;1591765;88;25888;-81
2022/03/06 09:01:24;;;;;;;9.45;6.03;;;;;;;2.57;51.43;101495.42;1606846;88;28395;-81
2022/03/06 09:03:51;;;;;;;12.75;6.08;;;;;;;2.61;51.06;101491.58;1617299;88;25858;-81
2022/03/06 09:06:17;;;;;;;9.80;5.50;;;;;;;2.65;50.96;101485.61;1613448;87;25387;-80
2022/03/06 09:08:44;;;;;;;8.25;5.40;;;;;;;2.66;50.89;101485.48;1579463;89;26785;-79
2022/03/06 09:11:11;;;;;;;7.05;4.87;;;;;;;2.65;50.63;101484.28;1610709;87;25973;-81
2022/03/06 09:13:37;;;;;;;7.37;5.30;;;;;;;2.66;50.93;101485.48;1606037;88;27469;-79
2022/03/06 09:16:05;;;;;;;6.80;5.22;;;;;;;2.71;50.76;101485.14;1607738;88;25881;-81
2022/03/06 09:18:31;;;;;;;9.35;4.42;;;;;;;2.79;50.64;101484.94;1607354;88;25515;-82
2022/03/06 09:20:58;;;;;;;10.68;6.20;;;;;;;2.83;50.56;101471.83;1602853;88;26552;-81
2022/03/06 09:23:25;;;;;;;8.13;4.70;;;;;;;2.84;50.19;101477.50;1606043;88;26674;-81
2022/03/06 09:25:51;;;;;;;4.45;3.77;;;;;;;2.83;50.28;101473.16;1603420;88;27582;-81
2022/03/06 09:28:18;;;;;;;7.10;4.75;;;;;;;2.82;49.32;101473.28;1607134;87;26457;-81
2022/03/06 09:30:44;;;;;;;7.40;4.60;;;;;;;2.74;48.66;101480.45;1607496;88;25923;-81
2022/03/06 09:33:10;;;;;;;7.92;5.05;;;;;;;2.69;49.64;101474.69;1610445;88;25965;-81
2022/03/06 09:35:36;;;;;;;6.65;4.60;;;;;;;2.73;49.43;101472.17;1611523;88;26196;-80
2022/03/06 09:38:03;;;;;;;5.92;4.62;;;;;;;2.70;49.25;101466.25;1595972;88;27545;-80
2022/03/06 09:40:29;;;;;;;8.28;4.95;;;;;;;2.62;48.71;101466.84;1584997;89;25899;-82
2022/03/06 09:42:56;;;;;;;12.40;6.65;;;;;;;2.57;48.94;101472.09;1609867;88;25685;-81
2022/03/06 09:45:23;;;;;;;11.00;8.40;;;;;;;2.61;49.32;101464.31;1607583;88;25954;-81
2022/03/06 09:47:50;;;;;;;8.63;6.40;;;;;;;2.64;49.43;101455.66;1613409;88;25819;-81
2022/03/06 09:50:17;;;;;;;7.72;5.37;;;;;;;2.72;50.06;101459.04;1613914;86;28086;-81
2022/03/06 10:18:23;;;;;;;8.23;6.78;;;;;;;3.82;45.15;101445.91;1790411;78;25717;-78
2022/03/06 10:20:50;;;;;;;9.40;6.90;;;;;;;3.49;44.96;101451.22;1756953;80;26433;-78
2022/03/06 10:23:26;;;;;;;10.68;8.03;;;;;;;3.30;46.00;101448.33;1758537;80;28276;-78
2022/03/06 10:26:10;;;;;;;10.45;6.90;;;;;;;3.27;46.57;101445.09;1756493;80;25924;-78
2022/03/06 10:28:53;;;;;;;10.50;8.00;;;;;;;3.22;46.05;101440.14;1765321;80;25814;-78
2022/03/06 10:31:23;;;;;;;76.95;35.83;;;;;;;3.20;46.28;101434.13;1763711;80;26487;-78
2022/03/06 10:34:11;;;;;;;14.07;9.73;;;;;;;3.21;46.50;101437.13;1755949;80;25800;-78
2022/03/06 10:36:41;;;;;;;57.50;25.52;;;;;;;3.16;45.81;101441.10;1758993;80;27637;-78
2022/03/06 10:39:18;;;;;;;13.22;10.18;;;;;;;3.17;46.44;101435.68;1762094;80;25733;-77
2022/03/06 10:41:52;;;;;;;13.38;9.85;;;;;;;3.21;46.10;101438.45;1764709;80;25819;-79
2022/03/06 10:44:21;;;;;;;10.30;8.83;;;;;;;3.26;46.41;101432.80;1762859;80;25269;-78
2022/03/06 10:47:05;;;;;;;16.62;9.70;;;;;;;3.33;47.00;101436.19;1759472;80;25764;-79
2022/03/06 10:49:33;;;;;;;11.78;8.18;;;;;;;3.39;46.85;101429.55;1756450;80;28246;-79
2022/03/06 10:52:19;;;;;;;11.75;8.50;;;;;;;3.41;45.95;101430.27;1758162;80;25501;-78
2022/03/06 10:54:56;;;;;;;11.10;8.63;;;;;;;3.36;46.23;101422.69;1745916;80;26552;-78
2022/03/06 10:57:24;;;;;;;12.53;8.53;;;;;;;3.36;46.90;101420.55;1767248;80;25875;-79
2022/03/06 10:59:51;;;;;;;11.83;8.23;;;;;;;3.29;46.24;101419.33;1707098;83;25819;-79
2022/03/06 11:02:18;;;;;;;10.58;8.00;;;;;;;3.24;46.59;101415.72;1712865;82;27472;-78
2022/03/06 11:04:46;;;;;;;10.32;8.25;;;;;;;3.19;45.65;101418.38;1712437;82;26738;-78
2022/03/06 11:07:14;;;;;;;11.85;8.65;;;;;;;3.09;45.82;101411.14;1706553;82;25894;-77
2022/03/06 11:09:41;;;;;;;26.77;17.62;;;;;;;3.14;46.52;101412.93;1707377;82;25826;-79
2022/03/06 11:12:08;;;;;;;11.48;8.70;;;;;;;3.22;46.67;101409.70;1707491;82;25763;-78
2022/03/06 11:14:35;;;;;;;10.65;8.28;;;;;;;3.26;45.87;101406.32;1707132;82;28464;-79
2022/03/06 11:17:01;;;;;;;12.13;9.35;;;;;;;3.23;44.91;101410.55;1724509;81;25870;-79
2022/03/06 11:19:27;;;;;;;10.65;8.63;;;;;;;3.17;45.70;101407.88;1710853;82;25740;-79
2022/03/06 11:22:02;;;;;;;10.93;8.88;;;;;;;3.17;46.48;101408.36;1714388;83;25830;-79
2022/03/06 11:24:30;;;;;;;13.65;8.93;;;;;;;3.16;45.73;101405.37;1699846;83;25720;-78
2022/03/06 11:27:26;;;;;;;12.70;7.92;;;;;;;3.18;45.69;101398.99;1720962;82;27529;-77
2022/03/06 11:30:10;;;;;;;11.12;8.33;;;;;;;3.15;45.21;101397.89;1702526;82;25774;-79
2022/03/06 11:32:39;;;;;;;12.30;9.25;;;;;;;3.06;45.18;101395.48;1702659;83;26606;-78
2022/03/06 11:35:15;;;;;;;10.35;7.60;;;;;;;3.05;46.16;101391.64;1686756;83;25856;-78
2022/03/06 11:37:54;;;;;;;10.45;8.30;;;;;;;3.07;45.14;101388.40;1702626;82;26682;-79
2022/03/06 11:40:53;;;;;;;14.63;10.45;;;;;;;3.07;44.50;101379.98;1728661;82;27442;-80
2022/03/06 11:43:37;;;;;;;19.37;14.00;;;;;;;3.09;45.69;101376.73;1710442;82;26292;-78
2022/03/06 11:46:17;;;;;;;20.23;13.65;;;;;;;3.18;46.43;101375.64;1720197;82;25778;-78
2022/03/06 11:48:49;;;;;;;12.40;9.58;;;;;;;3.27;46.33;101373.60;1720038;82;25990;-78
2022/03/06 11:51:24;;;;;;;11.15;8.95;;;;;;;3.25;46.27;101370.23;1724221;82;25906;-78
2022/03/06 11:54:11;;;;;;;12.75;9.23;;;;;;;3.26;46.06;101366.13;1716636;82;27505;-78